메인 페이지
METAR-TAF:

METAR-TAF

공항 :

자헤단 공항

자헤단, 이란

위도: 29-28N, 경도: 060-53E, 고도: 1370m

현재 날씨관측

예보는 16분 전, 04:00시(UTC)에 발표되었습니다.
4kt
온도 9°C
습도 57%
기압 1027 hPa
시정 10km 이상
1500m 미만 상공 구름 및 적란운 없음

METAR: OIZH 060400Z 19004KT CAVOK 09/01 Q1026 A3032

시각: 07:46 (04:16 UTC)

예보

예보는 5 시간 16분 전, 23:00시(UTC)에 발표되었습니다.
예보 대상 시간: 06일 00시부터 07일 06시까지 (UTC)
4kt
시정 10km 이상
1500m 미만 상공 구름 및 적란운 없음
일시적
06일 09시부터 06일 14시까지 (UTC)
북북동16kt

TAF: OIZH 052300Z 0600/0706 09004KT CAVOK TEMPO 0609/0614 02016KT

4,000개 이상의 공항 관측 자료 및 예보 (METAR 및 TAF 보고).

지도상에서 검색 가능한 기상관측소가 노란 점과 빨간 점으로 표시되어 있습니다.

기상관측소 명을 보려면 표시 위로 마우스를 이동하세요.

날씨 관측과 예보를 보려면 클릭하세요.

지도 변경 : 확대하려면 엑스 표시가 있는 녹색 버튼, 축소하려면 빼기 표시가 있는 녹색 버튼, 다음 페이지의 지도를 보려면 녹색 화살표를 클릭하세요.


METAR-TAF: